Lake Forest, California
Current Conditions -  °F | °C
As of 2:53 PM on Saturday 25 Oct 2014 (Local Time) from KSNA Reporting Station
Scattered Clouds Scattered Clouds  
Wind Chill: 78°   Ceiling: Unl
Heat Index: 79°   Visibility: 10mi
Dew Point: 56°   Wind: 9mph
Humidity: 46%   Direction: 260°W
Pressure: 30.01"   Gusts: NA
Location:  33.65°N, 117.69°W
Report Text: KSNA 252153Z 26008KT 10SM FEW050 SCT140 SCT250 26/13 A3001 RMK AO2 SLP162 T02560133
Loading
Personal Weather Stations






























Interactive Weather Map
Tropical Storm Tracking
New forecast layout! Learn more

10-Day Weather Forecast

Advertisements
Track Severe Weather on mobile